Time;durP1;ratioP1;P1;durP2;ratioP2;P2;SDS_P1;SDS_P2;PMS_P1;PMS_P2;Temp;Humidity;BMP_temperature;BMP_pressure;BME280_temperature;BME280_humidity;BME280_pressure;Samples;Min_cycle;Max_cycle;Signal;HPM_P1;HPM_P2
2022/08/01 00:01:00;;;;;;;4.35;4.10;;;18.30;99.90;;;19.31;72.75;97942.53;5223330;28;20626;-64
2022/08/01 00:03:33;;;;;;;4.40;4.00;;;18.30;99.90;;;19.23;72.56;97932.00;5226245;28;20754;-65
2022/08/01 00:06:06;;;;;;;4.70;4.40;;;18.20;99.90;;;19.22;72.64;97932.81;5223659;28;20681;-65
2022/08/01 00:08:41;;;;;;;4.35;3.95;;;18.30;99.90;;;19.21;72.87;97938.84;5225339;28;20233;-64
2022/08/01 00:11:14;;;;;;;4.40;4.10;;;18.20;99.90;;;19.10;73.27;97936.00;5228356;28;20684;-64
2022/08/01 00:13:48;;;;;;;4.68;4.28;;;18.10;99.90;;;19.11;73.33;97934.25;5214504;28;20744;-65
2022/08/01 00:16:22;;;;;;;5.13;3.88;;;18.10;99.90;;;19.09;73.25;97935.97;5226572;28;20244;-64
2022/08/01 00:18:55;;;;;;;4.13;3.83;;;18.10;99.90;;;19.04;73.46;97938.44;5229259;28;20213;-64
2022/08/01 00:21:28;;;;;;;4.10;3.80;;;18.00;99.90;;;19.05;73.94;97936.72;5217534;28;20224;-64
2022/08/01 00:24:03;;;;;;;4.43;4.07;;;18.00;99.90;;;18.99;73.81;97934.84;5220123;28;20233;-64
2022/08/01 00:26:36;;;;;;;4.45;4.15;;;18.00;99.90;;;18.96;74.38;97936.50;5218834;28;20552;-64
2022/08/01 00:29:09;;;;;;;4.20;3.90;;;18.00;99.90;;;18.96;74.00;97939.06;5215055;28;20292;-64
2022/08/01 00:32:02;;;;;;;4.45;4.15;;;18.00;99.90;;;18.93;74.25;97944.19;5217955;28;20217;-64
2022/08/01 00:34:36;;;;;;;4.13;3.83;;;17.90;99.90;;;18.88;74.13;97941.47;5232278;28;20235;-64
2022/08/01 00:37:09;;;;;;;4.20;3.80;;;17.90;99.90;;;18.87;73.83;97942.31;5223230;28;20309;-64
2022/08/01 00:39:49;;;;;;;4.45;4.05;;;17.80;99.90;;;18.75;74.25;97942.88;5221843;28;20204;-64
2022/08/01 00:42:22;;;;;;;4.10;3.80;;;17.70;99.90;;;18.74;74.23;97941.09;5220130;28;20315;-64
2022/08/01 00:44:55;;;;;;;3.95;3.75;;;17.70;99.90;;;18.68;74.42;97949.59;5217210;28;20259;-64
2022/08/01 00:47:28;;;;;;;3.80;3.58;;;17.70;99.90;;;18.60;74.24;97945.00;5213873;28;20197;-64
2022/08/01 00:50:02;;;;;;;4.03;3.80;;;17.60;99.90;;;18.61;73.90;97941.59;5213205;28;20229;-64
2022/08/01 00:52:36;;;;;;;4.85;3.80;;;17.60;99.90;;;18.60;74.50;97945.91;5217564;28;20305;-64
2022/08/01 00:55:13;;;;;;;3.97;3.67;;;17.60;99.90;;;18.58;74.45;97946.69;5208980;28;20685;-64
2022/08/01 00:57:48;;;;;;;4.07;3.78;;;17.60;99.90;;;18.55;74.81;97946.63;5208641;28;20215;-64
2022/08/01 01:00:37;;;;;;;4.32;3.92;;;17.50;99.90;;;18.49;75.02;97947.31;5217505;28;20207;-64
2022/08/01 01:03:26;;;;;;;4.78;4.38;;;17.50;99.90;;;18.49;74.86;97942.16;5213736;28;20225;-64
2022/08/01 01:06:42;;;;;;;4.38;3.97;;;17.50;99.90;;;18.45;76.04;97943.75;5220010;28;20202;-64
2022/08/01 01:09:34;;;;;;;4.43;4.18;;;17.50;99.90;;;18.50;75.82;97938.72;5216175;28;20488;-64
2022/08/01 01:12:22;;;;;;;4.50;4.20;;;17.50;99.90;;;18.38;76.26;97948.75;5217954;28;20252;-64
2022/08/01 01:15:03;;;;;;;4.22;3.83;;;17.40;99.90;;;18.43;76.66;97937.69;5218333;28;20197;-65
2022/08/01 01:17:42;;;;;;;4.10;3.90;;;17.40;99.90;;;18.33;77.06;97948.59;5220844;28;20332;-64
2022/08/01 01:20:29;;;;;;;4.30;4.05;;;17.40;99.90;;;18.26;77.23;97951.88;5220074;28;20264;-64
2022/08/01 01:23:33;;;;;;;4.63;4.32;;;17.30;99.90;;;18.21;76.77;97954.31;5217913;28;20263;-64
2022/08/01 01:26:24;;;;;;;4.97;4.57;;;17.30;99.90;;;18.23;76.84;97954.38;5217291;28;20708;-64
2022/08/01 01:29:13;;;;;;;4.82;4.10;;;17.20;99.90;;;18.20;77.04;97949.13;5216932;28;20279;-64
2022/08/01 01:31:51;;;;;;;4.45;4.15;;;17.20;99.90;;;18.18;76.72;97958.53;5218201;28;20260;-64
2022/08/01 01:34:28;;;;;;;3.95;3.55;;;17.20;99.90;;;18.07;75.05;97962.50;5222052;28;20232;-64
2022/08/01 01:37:04;;;;;;;3.75;3.55;;;17.10;99.90;;;17.99;75.98;97960.56;5218347;28;20300;-64
2022/08/01 01:39:38;;;;;;;4.80;4.40;;;17.00;99.90;;;17.98;76.75;97958.81;5217447;28;20220;-64
2022/08/01 01:42:18;;;;;;;4.35;3.88;;;17.00;99.90;;;17.90;77.22;97969.78;5224793;28;20605;-64
2022/08/01 01:44:55;;;;;;;4.68;4.25;;;16.90;99.90;;;17.92;76.75;97971.56;5221945;28;20279;-64
2022/08/01 01:47:29;;;;;;;4.40;4.10;;;17.00;99.90;;;17.93;77.25;97969.88;5217708;28;20227;-64
2022/08/01 01:50:06;;;;;;;4.28;3.95;;;16.90;99.90;;;17.91;76.38;97966.34;5222048;28;20240;-64
2022/08/01 01:52:41;;;;;;;4.28;3.85;;;17.00;99.90;;;17.89;76.65;97974.06;5228594;28;20227;-64
2022/08/01 01:55:15;;;;;;;4.00;3.80;;;16.90;99.90;;;17.88;76.36;97969.72;5225112;28;20953;-64
2022/08/01 01:57:50;;;;;;;4.05;3.78;;;16.90;99.90;;;17.86;76.23;97962.78;5220359;28;20304;-64
2022/08/01 02:00:26;;;;;;;4.88;4.40;;;16.90;99.90;;;17.86;76.27;97965.34;5222527;28;20260;-64
2022/08/01 02:03:03;;;;;;;4.20;3.95;;;16.90;99.90;;;17.78;76.59;97965.13;5218128;28;20244;-64
2022/08/01 02:05:38;;;;;;;4.40;4.10;;;16.90;99.90;;;17.71;76.73;97965.72;5222954;28;20303;-64
2022/08/01 02:08:15;;;;;;;4.13;3.83;;;16.80;99.90;;;17.72;77.01;97962.31;5223263;28;20268;-65
2022/08/01 02:13:39;;;;;;;4.30;4.10;;;16.80;99.90;;;17.74;77.56;97970.97;5222733;28;20319;-64
2022/08/01 02:16:15;;;;;;;4.47;3.58;;;16.80;99.90;;;17.71;77.75;97957.94;5217540;28;20276;-64
2022/08/01 02:18:48;;;;;;;4.25;3.95;;;16.80;99.90;;;17.73;77.72;97969.22;5226057;28;20311;-64
2022/08/01 02:21:28;;;;;;;3.95;3.75;;;16.80;99.90;;;17.67;77.84;97974.22;5223336;28;20287;-64
2022/08/01 02:24:10;;;;;;;4.25;3.95;;;16.70;99.90;;;17.65;78.12;97973.28;5218219;28;20258;-64
2022/08/01 02:26:50;;;;;;;4.55;4.25;;;16.80;99.90;;;17.61;76.94;97974.03;5221795;28;20258;-64
2022/08/01 02:29:28;;;;;;;4.05;3.75;;;16.70;99.90;;;17.63;77.26;97981.00;5220656;28;20228;-64
2022/08/01 02:32:05;;;;;;;4.80;4.50;;;16.70;99.90;;;17.66;77.21;97975.94;5214376;28;20252;-64
2022/08/01 02:34:40;;;;;;;4.50;4.10;;;16.70;99.90;;;17.62;77.29;97978.34;5219990;28;20653;-64
2022/08/01 02:37:15;;;;;;;4.40;4.10;;;16.60;99.90;;;17.58;77.24;97982.56;5220793;28;20390;-64
2022/08/01 02:39:52;;;;;;;4.07;3.78;;;16.60;99.90;;;17.62;77.80;97976.66;5225446;28;20228;-64
2022/08/01 02:42:29;;;;;;;4.40;4.10;;;16.70;99.90;;;17.61;77.23;97980.06;5214126;28;20260;-64
2022/08/01 02:45:05;;;;;;;4.50;4.20;;;16.70;99.90;;;17.62;76.94;97976.66;5217198;28;20189;-64
2022/08/01 02:47:43;;;;;;;4.50;4.20;;;16.70;99.90;;;17.58;76.91;97976.53;5220636;28;20197;-64
2022/08/01 02:50:18;;;;;;;4.18;3.90;;;16.60;99.90;;;17.53;77.35;97979.81;5217014;28;20228;-64
2022/08/01 02:52:53;;;;;;;4.63;4.32;;;16.60;99.90;;;17.49;76.97;97988.31;5221824;28;20212;-64
2022/08/01 02:55:28;;;;;;;4.60;4.20;;;16.60;99.90;;;17.47;77.38;97987.38;5218139;28;20221;-64
2022/08/01 02:58:02;;;;;;;4.18;3.88;;;16.60;99.90;;;17.38;77.51;97984.50;5218599;28;20244;-64
2022/08/01 03:00:36;;;;;;;4.40;4.10;;;16.50;99.90;;;17.46;76.95;97989.94;5212382;28;20220;-64
2022/08/01 03:03:14;;;;;;;4.22;4.00;;;16.50;99.90;;;17.47;76.81;97994.25;5220276;28;20220;-64
2022/08/01 03:05:49;;;;;;;4.82;4.53;;;16.50;99.90;;;17.47;77.38;97997.72;5216060;28;20668;-64
2022/08/01 03:08:24;;;;;;;4.75;4.32;;;16.60;99.90;;;17.47;77.55;97989.97;5212016;28;20284;-64
2022/08/01 03:11:00;;;;;;;4.43;4.13;;;16.60;99.90;;;17.48;77.89;97990.84;5218893;28;20234;-64
2022/08/01 03:13:34;;;;;;;4.55;4.22;;;16.60;99.90;;;17.46;78.03;97995.97;5217475;28;20221;-64
2022/08/01 03:16:08;;;;;;;4.90;4.50;;;16.50;99.90;;;17.44;77.81;97992.47;5210707;28;20283;-65
2022/08/01 03:18:45;;;;;;;4.35;4.00;;;16.50;99.90;;;17.41;78.04;97989.78;5211556;28;20225;-65
2022/08/01 03:21:20;;;;;;;4.47;4.07;;;16.50;99.90;;;17.41;77.46;97986.31;5211884;28;20255;-64
2022/08/01 03:23:56;;;;;;;4.72;4.32;;;16.50;99.90;;;17.38;78.19;97984.50;5214492;28;20288;-65
2022/08/01 03:26:34;;;;;;;4.72;4.32;;;16.50;99.90;;;17.36;77.68;97986.16;5212543;28;20236;-65
2022/08/01 03:29:13;;;;;;;4.78;4.30;;;16.40;99.90;;;17.34;77.92;97990.41;5218417;28;20280;-65
2022/08/01 03:31:49;;;;;;;4.85;4.55;;;16.40;99.90;;;17.37;78.14;97998.28;5220959;28;20251;-65
2022/08/01 03:34:23;;;;;;;4.43;4.22;;;16.40;99.90;;;17.31;78.33;97998.94;5228360;28;20212;-65
2022/08/01 03:37:04;;;;;;;4.70;4.30;;;16.40;99.90;;;17.31;78.06;97990.28;5223357;28;20581;-65
2022/08/01 03:39:46;;;;;;;4.53;4.10;;;16.40;99.90;;;17.36;78.55;97995.63;5220353;28;20256;-65
2022/08/01 03:42:25;;;;;;;4.50;4.20;;;16.30;99.90;;;17.29;78.76;97991.97;5226805;28;20229;-65
2022/08/01 03:45:05;;;;;;;5.07;4.63;;;16.30;99.90;;;17.21;78.64;97988.25;5212482;28;20244;-64
2022/08/01 03:47:45;;;;;;;4.72;4.40;;;16.20;99.90;;;17.18;78.87;97995.91;5225353;28;20275;-65
2022/08/01 03:50:23;;;;;;;4.35;4.05;;;16.20;99.90;;;17.11;78.62;98002.56;5229969;28;20235;-65
2022/08/01 03:53:00;;;;;;;4.75;4.45;;;16.20;99.90;;;17.10;78.94;97998.22;5222296;28;20702;-64
2022/08/01 03:55:35;;;;;;;4.47;4.18;;;16.10;99.90;;;17.13;79.42;98002.63;5225356;28;20235;-65
2022/08/01 03:58:10;;;;;;;4.50;4.10;;;16.20;99.90;;;17.14;79.60;97996.63;5222751;28;20239;-65
2022/08/01 04:00:44;;;;;;;4.63;4.32;;;16.20;99.90;;;17.15;79.94;98006.13;5220032;28;20657;-65
2022/08/01 04:03:18;;;;;;;4.55;4.25;;;16.20;99.90;;;17.21;79.92;98002.03;5226132;28;20244;-64
2022/08/01 04:05:52;;;;;;;4.38;4.07;;;16.20;99.90;;;17.12;79.64;98004.31;5220551;28;20263;-64
2022/08/01 04:08:36;;;;;;;4.65;4.35;;;16.20;99.90;;;17.19;79.42;98007.97;5233583;28;20610;-63
2022/08/01 04:11:10;;;;;;;4.88;4.47;;;16.20;99.90;;;17.30;79.13;98006.63;5227044;28;20197;-64
2022/08/01 04:13:43;;;;;;;4.43;4.13;;;16.30;99.90;;;17.27;79.85;98006.53;5226875;28;20219;-64
2022/08/01 04:16:17;;;;;;;4.43;4.05;;;16.30;99.90;;;17.26;79.40;98010.84;5219590;28;20225;-64
2022/08/01 04:18:50;;;;;;;4.55;4.15;;;16.30;99.90;;;17.31;78.96;98005.78;5224922;28;20700;-64
2022/08/01 04:21:28;;;;;;;4.70;4.30;;;16.30;99.90;;;17.28;79.06;97998.84;5224568;28;20232;-65
2022/08/01 04:24:07;;;;;;;4.72;4.38;;;16.40;99.90;;;17.30;79.58;98010.09;5220243;28;21763;-64
2022/08/01 04:26:42;;;;;;;4.90;4.50;;;16.30;99.90;;;17.30;79.33;98011.81;5226407;28;20690;-64
2022/08/01 04:29:18;;;;;;;4.78;4.47;;;16.40;99.90;;;17.25;79.10;98023.69;5216655;28;20567;-65
2022/08/01 04:31:55;;;;;;;5.18;4.78;;;16.30;99.90;;;17.28;78.43;98018.63;5214595;28;20260;-65
2022/08/01 04:34:31;;;;;;;4.38;4.00;;;16.30;99.90;;;17.30;78.41;98022.13;5225142;28;20220;-65
2022/08/01 04:37:08;;;;;;;5.65;4.43;;;16.30;99.90;;;17.26;78.56;98025.47;5222577;28;20229;-64
2022/08/01 04:39:45;;;;;;;4.63;4.30;;;16.30;99.90;;;17.24;78.44;98029.69;5217400;28;20249;-65
2022/08/01 04:42:23;;;;;;;4.53;4.18;;;16.30;99.90;;;17.24;78.80;98022.81;5217701;28;20225;-65
2022/08/01 04:45:08;;;;;;;4.38;4.07;;;16.30;99.90;;;17.23;78.62;98033.97;5217551;28;20669;-64
2022/08/01 04:47:43;;;;;;;5.70;4.30;;;16.30;99.90;;;17.31;78.92;98031.63;5217803;28;20246;-64
2022/08/01 04:50:17;;;;;;;4.60;4.30;;;16.40;99.90;;;17.43;78.19;98026.91;5223958;28;20274;-64
2022/08/01 04:52:51;;;;;;;5.00;4.60;;;16.50;99.90;;;17.44;77.75;98031.22;5218239;28;20303;-64
2022/08/01 04:55:25;;;;;;;4.55;4.25;;;16.60;99.90;;;17.53;78.04;98031.50;5231187;28;20693;-64
2022/08/01 04:57:58;;;;;;;4.85;4.40;;;16.70;99.90;;;17.50;77.72;98038.31;5217496;28;20233;-64
2022/08/01 05:00:33;;;;;;;4.97;4.47;;;16.60;99.90;;;17.55;77.51;98042.78;5223601;28;20245;-64
2022/08/01 05:03:06;;;;;;;5.43;5.03;;;16.70;99.90;;;17.59;76.75;98042.88;5220505;28;22070;-64
2022/08/01 05:05:40;;;;;;;4.90;4.57;;;16.70;99.90;;;17.59;77.79;98041.16;5221236;28;20238;-64
2022/08/01 05:08:16;;;;;;;4.32;4.03;;;16.80;99.90;;;17.64;77.54;98034.44;5214561;28;20553;-64
2022/08/01 05:10:49;;;;;;;5.25;4.82;;;16.80;99.90;;;17.63;78.31;98037.00;5222194;28;20291;-64
2022/08/01 05:13:22;;;;;;;4.47;4.18;;;16.80;99.90;;;17.72;77.87;98034.72;5220212;28;20307;-64
2022/08/01 05:15:55;;;;;;;4.70;4.32;;;16.80;99.90;;;17.82;77.98;98034.19;5221933;28;20629;-64
2022/08/01 05:18:29;;;;;;;4.97;4.57;;;16.80;99.90;;;17.98;76.82;98038.13;5223038;28;20233;-64
2022/08/01 05:21:02;;;;;;;4.88;4.47;;;17.10;99.90;;;18.13;76.48;98035.13;5222506;28;20308;-64
2022/08/01 05:23:37;;;;;;;4.95;4.65;;;17.20;99.90;;;18.37;75.72;98037.56;5212994;28;20241;-64
2022/08/01 05:26:15;;;;;;;4.22;3.92;;;17.40;99.90;;;19.01;74.00;98035.94;5219485;28;20248;-63
2022/08/01 05:28:48;;;;;;;4.07;3.78;;;18.30;99.90;;;19.84;71.60;98028.53;5225185;28;20232;-64
2022/08/01 05:31:21;;;;;;;4.40;4.10;;;19.20;99.90;;;20.70;68.13;98015.69;5226228;28;20247;-64
2022/08/01 05:33:54;;;;;;;4.15;3.85;;;20.00;99.90;;;21.58;64.64;98014.69;5213464;28;20625;-65
2022/08/01 05:36:28;;;;;;;3.92;3.63;;;20.70;99.90;;;22.25;61.43;98020.03;5227535;28;20227;-64
2022/08/01 05:39:02;;;;;;;4.13;3.83;;;21.10;99.90;;;22.88;59.86;98016.44;5225618;28;20243;-65
2022/08/01 05:41:37;;;;;;;3.97;3.65;;;21.80;99.90;;;23.45;57.56;98017.03;5217086;28;20868;-65
2022/08/01 05:44:10;;;;;;;4.15;3.75;;;22.10;99.60;;;23.33;57.38;98017.78;5219324;28;20201;-64
2022/08/01 05:46:44;;;;;;;4.22;3.92;;;21.70;99.90;;;23.33;58.04;98016.91;5217455;28;20252;-64
2022/08/01 05:49:17;;;;;;;4.15;3.60;;;21.70;99.90;;;23.76;57.65;98012.94;5216696;28;20247;-64
2022/08/01 05:51:50;;;;;;;4.18;3.78;;;22.20;99.90;;;24.02;56.33;98020.09;5214935;28;20305;-65
2022/08/01 05:54:25;;;;;;;4.15;3.80;;;22.20;99.40;;;23.90;56.41;98020.88;5214383;28;20718;-64
2022/08/01 05:57:01;;;;;;;4.10;3.80;;;22.00;99.90;;;23.90;56.65;98020.00;5214986;28;20290;-65
2022/08/01 05:59:34;;;;;;;3.97;3.65;;;22.00;99.90;;;24.23;56.30;98019.31;5219841;28;20208;-65
2022/08/01 06:02:07;;;;;;;3.88;3.55;;;22.50;99.70;;;24.58;55.75;98022.16;5215443;28;20251;-65
2022/08/01 06:04:41;;;;;;;3.92;3.55;;;22.80;99.10;;;25.12;54.57;98015.34;5216590;28;20338;-65
2022/08/01 06:07:15;;;;;;;4.00;3.58;;;23.30;98.20;;;25.52;52.81;98025.84;5219945;28;20240;-65
2022/08/01 06:09:49;;;;;;;3.80;3.50;;;23.60;97.50;;;26.08;51.93;98025.84;5221333;28;20759;-65
2022/08/01 06:12:22;;;;;;;3.78;3.47;;;24.10;96.60;;;26.61;50.05;98022.19;5216758;28;20304;-65
2022/08/01 06:14:55;;;;;;;4.30;4.00;;;24.50;95.40;;;26.93;49.22;98028.19;5225367;28;20207;-65
2022/08/01 06:17:28;;;;;;;3.67;3.40;;;24.70;94.90;;;27.12;48.39;98030.69;5214903;28;20196;-65
2022/08/01 06:20:02;;;;;;;3.60;3.40;;;25.00;93.80;;;27.45;47.01;98031.38;5214335;28;20712;-64
2022/08/01 06:22:35;;;;;;;3.80;3.50;;;25.00;93.60;;;27.93;44.72;98038.00;5215022;28;20621;-65
2022/08/01 06:25:10;;;;;;;3.78;3.17;;;25.40;92.20;;;28.01;45.11;98024.78;5210710;28;20216;-65
2022/08/01 06:27:43;;;;;;;4.40;3.42;;;25.40;92.20;;;27.89;44.83;98035.41;5215854;28;20641;-65
2022/08/01 06:30:16;;;;;;;3.90;3.50;;;25.10;92.40;;;27.78;45.45;98038.09;5210886;28;20236;-65
2022/08/01 06:32:49;;;;;;;3.78;3.50;;;25.40;92.20;;;28.24;43.62;98037.69;5217158;28;20572;-65
2022/08/01 06:35:23;;;;;;;3.75;3.55;;;25.60;91.40;;;28.86;42.88;98032.59;5220411;28;20234;-65
2022/08/01 06:37:56;;;;;;;3.85;3.55;;;26.00;90.80;;;29.22;42.06;98027.72;5214086;28;20231;-65
2022/08/01 06:40:31;;;;;;;4.85;3.40;;;26.50;90.10;;;29.62;40.63;98028.00;5220880;28;20251;-65
2022/08/01 06:43:07;;;;;;;3.70;3.42;;;26.90;88.20;;;29.99;39.56;98032.66;5217410;28;20364;-66
2022/08/01 06:45:41;;;;;;;3.40;3.10;;;27.20;86.50;;;29.90;39.34;98031.03;5219238;28;20288;-65
2022/08/01 06:48:14;;;;;;;3.38;3.15;;;27.40;85.70;;;30.11;39.12;98039.50;5219458;28;20224;-65
2022/08/01 06:50:47;;;;;;;3.35;3.13;;;27.50;84.60;;;30.42;38.77;98045.97;5217485;28;20196;-66
2022/08/01 06:53:20;;;;;;;3.65;2.90;;;27.80;84.50;;;30.69;38.60;98033.97;5217422;28;20697;-65
2022/08/01 06:55:55;;;;;;;3.58;3.10;;;28.00;83.70;;;30.66;38.48;98038.44;5221062;28;20255;-66
2022/08/01 06:58:28;;;;;;;3.10;2.90;;;28.00;83.50;;;30.80;38.45;98031.13;5224958;28;20203;-66
2022/08/01 07:01:06;;;;;;;3.22;2.88;;;28.30;83.00;;;31.15;37.48;98032.97;5215555;28;20212;-66
2022/08/01 07:03:40;;;;;;;3.50;3.22;;;28.40;82.50;;;31.14;38.05;98035.69;5215566;28;20767;-67
2022/08/01 07:06:27;;;;;;;3.10;2.85;;;28.40;82.70;;;31.06;38.02;98027.06;5219469;28;20250;-66
2022/08/01 07:09:00;;;;;;;3.03;2.63;;;28.60;81.70;;;31.32;37.51;98024.66;5218513;28;20297;-67
2022/08/01 07:11:44;;;;;;;3.20;2.90;;;28.90;81.20;;;31.32;37.92;98029.09;5214813;28;20633;-67
2022/08/01 07:14:17;;;;;;;3.55;2.92;;;29.20;80.40;;;31.69;37.09;98021.16;5217167;28;20639;-66
2022/08/01 07:16:51;;;;;;;2.97;2.70;;;29.20;80.40;;;31.94;36.39;98028.53;5216063;28;20225;-66
2022/08/01 07:19:24;;;;;;;3.97;2.70;;;29.60;79.20;;;32.25;36.00;98026.78;5217472;28;20226;-66
2022/08/01 07:21:57;;;;;;;2.72;2.53;;;29.80;78.70;;;32.13;36.43;98023.59;5221681;28;20657;-66
2022/08/01 07:24:31;;;;;;;2.60;2.40;;;29.70;78.50;;;31.83;36.70;98019.03;5222740;28;20228;-66
2022/08/01 07:27:08;;;;;;;2.80;2.60;;;29.70;78.90;;;32.04;36.75;98030.00;5222729;28;20192;-66
2022/08/01 07:29:56;;;;;;;2.67;2.47;;;29.90;78.50;;;32.16;36.62;98019.06;5225473;28;20197;-66
2022/08/01 07:32:30;;;;;;;2.40;2.30;;;29.70;78.50;;;32.17;36.23;98020.84;5225470;28;20220;-66
2022/08/01 07:35:04;;;;;;;2.38;2.20;;;29.70;77.70;;;32.15;36.34;98017.34;5217158;28;20628;-67
2022/08/01 07:37:37;;;;;;;2.58;2.25;;;29.60;79.20;;;32.31;36.96;98023.09;5223746;28;20238;-66
2022/08/01 07:40:21;;;;;;;2.88;2.00;;;29.80;78.80;;;32.06;36.80;98020.25;5224916;28;20256;-66
2022/08/01 07:42:56;;;;;;;1.98;1.88;;;29.90;78.60;;;32.72;35.98;98013.13;5223846;28;20685;-66
2022/08/01 07:45:29;;;;;;;2.00;1.80;;;30.20;77.50;;;32.66;36.02;98018.63;5221892;28;20192;-66
2022/08/01 07:48:05;;;;;;;2.03;1.77;;;30.10;77.70;;;32.68;35.61;98008.81;5223620;28;20638;-66
2022/08/01 07:50:41;;;;;;;2.10;1.90;;;30.10;77.80;;;32.79;36.14;98017.31;5225547;28;20196;-66
2022/08/01 07:53:14;;;;;;;2.25;2.05;;;30.10;77.90;;;32.94;35.01;98016.00;5234026;28;20254;-66
2022/08/01 07:55:47;;;;;;;2.10;2.00;;;30.30;76.70;;;33.12;34.31;98020.75;5227401;28;20243;-66
2022/08/01 07:58:22;;;;;;;2.78;2.30;;;30.20;76.90;;;32.84;35.05;98007.47;5219442;28;20208;-66
2022/08/01 08:00:55;;;;;;;2.15;1.90;;;30.00;77.60;;;33.07;34.78;98014.75;5215678;28;20691;-66
2022/08/01 08:03:28;;;;;;;2.50;2.25;;;30.20;77.40;;;32.72;35.93;98014.00;5221537;28;20282;-66
2022/08/01 08:06:01;;;;;;;2.72;2.05;;;30.00;77.30;;;32.98;35.59;98015.00;5224383;28;20229;-66
2022/08/01 08:08:35;;;;;;;2.30;2.10;;;30.30;77.80;;;33.01;35.12;98009.63;5222131;28;20228;-67
2022/08/01 08:11:08;;;;;;;3.55;2.17;;;30.50;76.90;;;33.03;35.66;98010.47;5222741;28;20672;-67
2022/08/01 08:13:42;;;;;;;2.17;1.90;;;30.80;75.40;;;32.59;35.89;98002.03;5215575;28;20759;-66
2022/08/01 08:16:15;;;;;;;2.90;1.77;;;30.50;75.60;;;32.43;36.94;98003.38;5214109;28;20291;-66
2022/08/01 08:18:49;;;;;;;2.53;2.13;;;30.70;76.70;;;32.34;35.85;98006.25;5217563;28;20289;-67
2022/08/01 08:21:22;;;;;;;2.55;1.88;;;30.60;75.30;;;32.27;36.08;98002.91;5216577;28;20724;-66
2022/08/01 08:26:46;;;;;;;2.00;1.90;;;30.00;76.60;;;31.98;37.03;97998.41;5219562;28;20223;-66
2022/08/01 08:29:26;;;;;;;2.10;2.00;;;30.10;76.80;;;31.82;38.12;97998.81;5218822;28;20193;-66
2022/08/01 08:32:01;;;;;;;2.58;2.35;;;30.20;77.50;;;32.00;36.98;98004.56;5216355;28;20274;-66
2022/08/01 08:34:34;;;;;;;3.22;2.10;;;30.50;76.20;;;31.39;38.65;98005.19;5218884;28;20196;-66
2022/08/01 08:37:08;;;;;;;2.17;1.98;;;29.90;77.90;;;31.05;39.11;98004.16;5214292;28;20642;-66
2022/08/01 08:39:41;;;;;;;2.55;2.13;;;29.30;79.30;;;30.85;39.71;97997.59;5216822;28;20301;-67
2022/08/01 08:42:14;;;;;;;2.30;2.10;;;29.00;80.00;;;30.53;40.24;98007.03;5212160;28;20221;-66
2022/08/01 08:44:49;;;;;;;2.55;2.20;;;28.60;81.30;;;30.24;40.84;98002.31;5207772;28;20229;-66
2022/08/01 08:47:25;;;;;;;2.35;2.13;;;28.40;81.30;;;29.76;42.57;98004.06;5214048;28;20298;-66
2022/08/01 08:49:59;;;;;;;2.50;2.30;;;28.20;83.00;;;28.81;43.90;97992.31;5217184;28;20730;-66
2022/08/01 08:52:36;;;;;;;2.42;2.30;;;27.50;84.10;;;28.68;44.84;98002.16;5226249;28;20278;-66
2022/08/01 08:55:14;;;;;;;2.22;2.08;;;27.40;85.30;;;29.09;44.39;97996.31;5220215;28;20223;-66
2022/08/01 08:57:47;;;;;;;2.45;2.25;;;27.90;84.30;;;29.45;42.64;97994.03;5221855;28;20524;-66
2022/08/01 09:00:23;;;;;;;2.33;2.13;;;28.20;82.60;;;29.64;42.66;97992.84;5217229;28;20258;-66
2022/08/01 09:02:56;;;;;;;3.03;2.28;;;28.40;82.00;;;29.78;42.82;97991.72;5216072;28;20244;-66
2022/08/01 09:05:29;;;;;;;3.05;2.25;;;28.80;81.60;;;29.67;42.60;97996.31;5225174;28;20247;-65
2022/08/01 09:08:11;;;;;;;3.72;2.40;;;28.50;82.20;;;29.59;42.22;97989.41;5226059;28;20203;-66
2022/08/01 09:10:44;;;;;;;3.25;2.85;;;28.30;82.10;;;29.65;42.32;97993.72;5221077;28;20639;-66
2022/08/01 09:13:18;;;;;;;2.60;2.40;;;28.20;82.50;;;29.86;41.89;97992.47;5222833;28;20271;-66
2022/08/01 09:15:58;;;;;;;2.25;2.15;;;28.60;81.50;;;30.25;40.58;97987.38;5219447;28;20247;-66
2022/08/01 09:18:35;;;;;;;2.80;2.60;;;29.30;79.00;;;30.25;40.66;97990.03;5220132;28;20196;-66
2022/08/01 09:21:16;;;;;;;2.28;2.17;;;29.40;78.40;;;30.16;41.27;97998.06;5222450;28;20428;-66
2022/08/01 09:23:53;;;;;;;2.60;2.40;;;29.10;79.90;;;30.40;41.13;97994.97;5221733;28;20228;-66
2022/08/01 09:26:32;;;;;;;2.30;2.15;;;29.40;79.60;;;30.62;40.31;97989.25;5221983;28;20196;-66
2022/08/01 09:29:09;;;;;;;2.60;2.17;;;29.60;78.60;;;31.07;39.34;97991.81;5221922;28;20779;-66
2022/08/01 09:31:49;;;;;;;2.17;2.08;;;30.20;76.90;;;31.19;40.05;97994.16;5224935;28;20315;-66
2022/08/01 09:34:28;;;;;;;2.47;2.20;;;30.50;77.70;;;31.33;39.80;97999.13;5224887;28;20196;-66
2022/08/01 09:37:05;;;;;;;2.83;2.22;;;30.60;77.80;;;31.02;39.55;97988.41;5226123;28;20197;-67
2022/08/01 09:39:42;;;;;;;2.33;2.13;;;30.10;77.30;;;31.06;39.05;97996.22;5221427;28;20279;-66
2022/08/01 09:42:24;;;;;;;2.30;2.10;;;29.90;77.00;;;31.02;39.01;97998.97;5217557;28;20225;-67
2022/08/01 09:45:01;;;;;;;2.47;1.92;;;29.80;77.40;;;31.18;39.13;97992.44;5207149;28;20228;-66
2022/08/01 09:47:41;;;;;;;2.35;1.88;;;30.30;76.70;;;31.04;39.64;97998.03;5209418;28;20220;-66
2022/08/01 09:50:16;;;;;;;2.78;2.10;;;30.30;76.90;;;30.53;39.70;98000.84;5218470;28;20569;-66
2022/08/01 09:52:55;;;;;;;2.10;2.00;;;29.90;76.40;;;30.28;39.63;98000.50;5218792;28;20229;-66
2022/08/01 09:55:29;;;;;;;2.50;2.30;;;29.30;77.30;;;30.11;40.17;98005.22;5215292;28;20299;-66
2022/08/01 09:58:04;;;;;;;2.50;2.30;;;29.00;77.90;;;30.00;40.58;98011.53;5215859;28;20193;-67
2022/08/01 10:00:37;;;;;;;2.20;2.10;;;28.80;79.20;;;30.07;40.94;98012.28;5219446;28;20191;-67
2022/08/01 10:03:24;;;;;;;2.60;2.40;;;29.10;78.30;;;30.38;40.63;98007.31;5212210;28;20593;-66
2022/08/01 10:05:59;;;;;;;2.55;2.40;;;29.50;78.50;;;30.44;39.91;98001.91;5208563;28;20238;-68
2022/08/01 10:08:47;;;;;;;2.50;2.30;;;29.70;77.20;;;30.41;40.03;98009.91;5214136;28;20232;-68
2022/08/01 10:11:22;;;;;;;3.28;2.97;;;29.50;77.30;;;30.46;39.62;97999.25;5218290;28;20192;-67
2022/08/01 10:14:09;;;;;;;4.25;2.92;;;29.40;77.20;;;30.50;39.91;97996.53;5215594;28;20193;-66
2022/08/01 10:16:42;;;;;;;2.50;2.40;;;29.70;77.10;;;30.76;39.84;97997.72;5221483;28;20189;-67
2022/08/01 10:19:17;;;;;;;2.78;2.58;;;30.00;76.50;;;30.92;38.98;97987.75;5216786;28;20205;-66
2022/08/01 10:21:55;;;;;;;3.10;2.80;;;30.10;75.70;;;31.07;38.10;97989.16;5217404;28;20228;-65
2022/08/01 10:24:32;;;;;;;2.92;2.72;;;30.20;74.60;;;30.83;38.95;97986.19;5212875;28;20557;-67
2022/08/01 10:27:08;;;;;;;2.80;2.50;;;29.90;75.60;;;30.72;39.29;97981.09;5208507;28;20255;-67
2022/08/01 10:29:50;;;;;;;2.83;2.63;;;29.90;76.10;;;30.87;38.66;97981.69;5220350;28;20201;-66
2022/08/01 10:32:42;;;;;;;4.20;3.15;;;30.10;74.90;;;30.94;38.62;97981.53;5215903;28;20696;-70
2022/08/01 10:35:24;;;;;;;3.20;3.00;;;30.20;75.30;;;31.11;37.65;97981.16;5219641;28;20193;-69
2022/08/01 10:38:17;;;;;;;4.55;2.92;;;30.20;73.80;;;31.00;38.14;97974.38;5216746;28;20196;-69
2022/08/01 10:40:53;;;;;;;3.50;3.20;;;30.10;73.90;;;31.02;37.83;97975.19;5216203;28;20245;-67
2022/08/01 10:43:26;;;;;;;3.72;3.47;;;30.10;74.10;;;30.65;38.50;97978.66;5210412;28;20550;-66
2022/08/01 10:46:00;;;;;;;3.30;3.00;;;29.80;74.70;;;30.37;38.33;97976.56;5211722;28;20208;-66
2022/08/01 10:48:46;;;;;;;3.78;3.47;;;29.40;75.20;;;30.18;39.58;97978.66;5226142;28;20282;-66
2022/08/01 10:51:22;;;;;;;3.97;3.63;;;29.10;76.10;;;30.25;38.98;97966.28;5219805;28;20560;-66
2022/08/01 10:54:15;;;;;;;3.60;3.35;;;29.10;76.20;;;30.16;38.70;97979.59;5222766;28;20209;-67
2022/08/01 10:56:51;;;;;;;3.75;3.45;;;29.20;75.30;;;30.16;39.01;97969.03;5218311;28;20668;-67
2022/08/01 10:59:27;;;;;;;4.00;3.70;;;29.20;75.50;;;29.84;39.18;97970.53;5219931;28;20246;-66
2022/08/01 11:02:29;;;;;;;4.13;3.72;;;29.00;75.30;;;29.72;40.06;97965.50;5221566;28;20232;-66
2022/08/01 11:05:12;;;;;;;3.88;3.50;;;28.70;76.20;;;29.75;40.62;97968.94;5221235;28;20200;-67